KBCB/BCB METAR and TAF weather

Enter ICAO airport designator
Station Type Date Time Source
KBCB METAR 2022/11/27 08:15 UTC NOAA

KBCB 270815Z AUTO 00000KT 10SM SCT060 SCT090 BKN120 08/03 A2997 RMK AO2 T00780034


Station Type Date Time Source
KBCB Decoded METAR 2022/11/27 08:15 UTC NOAA

Virginia Tech Airport, VA, United States (KBCB) 37-13N 080-25W
Nov 27, 2022 - 03:15 AM EST / 2022.11.27 0815 UTC
Wind: Calm:0
Visibility: 10 mile(s):0
Sky conditions: mostly cloudy
Temperature: 46.0 F (7.8 C)
Dew Point: 38.1 F (3.4 C)
Relative Humidity: 73%
Pressure (altimeter): 29.97 in. Hg (1014 hPa)
ob: KBCB 270815Z AUTO 00000KT 10SM SCT060 SCT090 BKN120 08/03 A2997 RMK AO2 T00780034
cycle: 8

Station Type Date Time Source
KBCB TAF 2022/11/27 06:39 UTC NOAA

TAF KBCB 270536Z 2706/2806 00000KT P6SM OVC200
FM271000 10003KT P6SM -RA SCT025 OVC035 WS020/19035KT
TEMPO 2710/2712 4SM -RA BR OVC025
FM271200 10003KT 6SM -SHRA BR SCT006 OVC020 WS020/18040KT
TEMPO 2712/2715 2SM SHRA BR OVC004
FM271700 22007KT P6SM SCT006 BKN028
FM272000 25012G24KT P6SM BKN045

Example: see airport list